Martinstown, Missouri
Current Conditions -  °F | °C
As of 12:55 PM on Saturday 25 Oct 2014 (Local Time) from KTVK Reporting Station
Clear Clear  
Wind Chill: 72°   Ceiling: Unl
Heat Index: 72°   Visibility: 10mi
Dew Point: 41°   Wind: 5mph
Humidity: 33%   Direction: 20°NNE
Pressure: 30.09"   Gusts: NA
Location:  40.4961°N, 92.9907°W
Report Text: KTVK 251755Z AUTO 02004KT 10SM CLR 22/05 A3009 RMK AO2
Loading
Personal Weather Stations






























Interactive Weather Map
Tropical Storm Tracking
New forecast layout! Learn more

10-Day Weather Forecast

Advertisements
Track Severe Weather on mobile